Time;durP1;ratioP1;P1;durP2;ratioP2;P2;SDS_P1;SDS_P2;PMS_P1;PMS_P2;Temp;Humidity;BMP_temperature;BMP_pressure;BME280_temperature;BME280_humidity;BME280_pressure;Samples;Min_cycle;Max_cycle;Signal;HPM_P1;HPM_P2
2023/08/16 00:01:58;;;;;;;5.43;2.45;;;;;;;;;;5002473;28;20104;-76
2023/08/16 00:04:44;;;;;;;6.45;3.00;;;;;;;;;;5014657;28;20072;-76
2023/08/16 00:07:32;;;;;;;3.75;2.80;;;;;;;;;;5026817;28;20033;-74
2023/08/16 00:10:17;;;;;;;6.88;2.92;;;;;;;;;;5024601;28;20084;-74
2023/08/16 00:13:03;;;;;;;5.10;2.60;;;;;;;;;;5021931;28;20089;-74
2023/08/16 00:15:48;;;;;;;8.05;2.78;;;;;;;;;;5018976;28;20029;-74
2023/08/16 00:18:33;;;;;;;6.85;2.95;;;;;;;;;;5030407;28;20033;-76
2023/08/16 00:21:18;;;;;;;5.47;2.95;;;;;;;;;;5043650;28;20034;-71
2023/08/16 00:24:05;;;;;;;7.43;3.20;;;;;;;;;;5021131;28;20117;-80
2023/08/16 00:26:50;;;;;;;5.88;3.08;;;;;;;;;;5041425;28;20391;-79
2023/08/16 00:29:35;;;;;;;8.93;3.35;;;;;;;;;;5031440;28;20065;-79
2023/08/16 00:32:20;;;;;;;2.72;2.45;;;;;;;;;;5032844;28;20028;-79
2023/08/16 00:35:06;;;;;;;7.40;3.08;;;;;;;;;;5033624;28;20075;-79
2023/08/16 00:37:52;;;;;;;4.72;2.90;;;;;;;;;;5039378;28;20047;-81
2023/08/16 00:40:37;;;;;;;3.63;2.45;;;;;;;;;;5034561;28;20033;-80
2023/08/16 00:43:22;;;;;;;5.28;2.80;;;;;;;;;;5032410;28;20063;-80
2023/08/16 00:46:10;;;;;;;4.72;3.15;;;;;;;;;;5031987;28;20108;-80
2023/08/16 00:48:56;;;;;;;4.93;3.17;;;;;;;;;;5036944;28;20033;-80
2023/08/16 00:51:41;;;;;;;6.22;3.13;;;;;;;;;;5056589;28;20033;-80
2023/08/16 00:54:26;;;;;;;4.25;2.67;;;;;;;;;;5009810;28;20487;-79
2023/08/16 00:57:12;;;;;;;5.38;2.72;;;;;;;;;;5033914;28;20490;-82
2023/08/16 00:59:57;;;;;;;4.47;2.80;;;;;;;;;;5061486;28;20111;-77
2023/08/16 01:02:42;;;;;;;3.83;2.67;;;;;;;;;;5022969;28;20030;-74
2023/08/16 01:05:28;;;;;;;6.22;2.70;;;;;;;;;;5009562;28;20047;-74
2023/08/16 01:10:58;;;;;;;9.52;2.85;;;;;;;;;;5914783;22;21499;-81
2023/08/16 01:14:05;;;;;;;6.68;3.10;;;;;;;;;;4998497;23;20369;-75
2023/08/16 01:16:51;;;;;;;6.90;3.33;;;;;;;;;;5032621;28;20033;-75
2023/08/16 01:19:36;;;;;;;5.68;2.70;;;;;;;;;;5017295;28;20053;-72
2023/08/16 01:22:37;;;;;;;5.18;3.08;;;;;;;;;;5026729;28;20778;-72
2023/08/16 01:25:25;;;;;;;5.47;3.10;;;;;;;;;;5023800;28;20133;-72
2023/08/16 01:28:10;;;;;;;4.67;3.00;;;;;;;;;;5031969;28;20035;-70
2023/08/16 01:31:04;;;;;;;6.57;3.05;;;;;;;;;;5030536;28;20117;-73
2023/08/16 01:33:50;;;;;;;4.95;2.90;;;;;;;;;;5032944;28;20036;-73
2023/08/16 01:36:35;;;;;;;4.43;2.80;;;;;;;;;;5009949;28;20087;-74
2023/08/16 01:39:20;;;;;;;7.18;2.90;;;;;;;;;;5030372;28;20025;-74
2023/08/16 01:42:08;;;;;;;4.95;2.72;;;;;;;;;;5003837;28;20036;-76
2023/08/16 01:44:54;;;;;;;5.68;2.90;;;;;;;;;;5009246;28;20037;-75
2023/08/16 01:47:40;;;;;;;4.28;2.80;;;;;;;;;;5032422;28;20044;-79
2023/08/16 01:50:25;;;;;;;7.00;2.60;;;;;;;;;;5017689;28;20033;-70
2023/08/16 01:53:10;;;;;;;6.38;3.28;;;;;;;;;;5006459;28;20471;-70
2023/08/16 01:55:56;;;;;;;5.07;3.42;;;;;;;;;;5027052;28;20082;-71
2023/08/16 01:58:41;;;;;;;5.20;3.00;;;;;;;;;;5011654;28;20038;-70
2023/08/16 02:01:26;;;;;;;7.25;2.92;;;;;;;;;;5009788;28;20041;-70
2023/08/16 02:04:11;;;;;;;4.55;3.10;;;;;;;;;;5024922;28;20165;-70
2023/08/16 02:06:56;;;;;;;7.55;3.42;;;;;;;;;;5016499;28;20044;-70
2023/08/16 02:09:42;;;;;;;4.28;2.50;;;;;;;;;;5004663;28;20062;-71
2023/08/16 02:12:27;;;;;;;6.25;3.30;;;;;;;;;;5028810;28;20029;-70
2023/08/16 02:15:13;;;;;;;3.97;3.03;;;;;;;;;;5002360;28;20039;-70
2023/08/16 02:17:58;;;;;;;8.60;3.10;;;;;;;;;;4987483;28;20221;-70
2023/08/16 02:20:43;;;;;;;5.63;3.25;;;;;;;;;;5005288;28;20072;-72
2023/08/16 02:23:28;;;;;;;6.45;3.05;;;;;;;;;;5002315;28;20104;-68
2023/08/16 02:26:14;;;;;;;5.25;3.10;;;;;;;;;;5011069;28;20077;-75
2023/08/16 02:28:59;;;;;;;8.90;3.42;;;;;;;;;;5011875;28;20033;-74
2023/08/16 02:31:44;;;;;;;7.47;3.22;;;;;;;;;;5015406;28;20044;-74
2023/08/16 02:34:29;;;;;;;6.57;3.08;;;;;;;;;;5014414;28;20427;-74
2023/08/16 02:37:15;;;;;;;5.95;3.28;;;;;;;;;;5001570;28;20034;-74
2023/08/16 02:40:00;;;;;;;4.47;3.45;;;;;;;;;;4998166;28;20091;-76
2023/08/16 02:42:46;;;;;;;5.60;2.80;;;;;;;;;;4987887;28;20584;-76
2023/08/16 02:45:31;;;;;;;6.72;3.15;;;;;;;;;;4999587;28;20570;-78
2023/08/16 02:48:17;;;;;;;4.95;2.75;;;;;;;;;;4987033;28;20049;-78
2023/08/16 02:51:02;;;;;;;6.97;3.28;;;;;;;;;;5011782;28;20041;-80
2023/08/16 02:53:47;;;;;;;6.88;3.58;;;;;;;;;;5007364;28;20034;-79
2023/08/16 02:56:33;;;;;;;3.67;3.08;;;;;;;;;;4998145;28;20052;-78
2023/08/16 02:59:18;;;;;;;5.40;3.50;;;;;;;;;;4968983;28;20030;-74
2023/08/16 03:02:03;;;;;;;4.22;3.05;;;;;;;;;;5008892;28;20039;-71
2023/08/16 03:04:48;;;;;;;6.43;3.65;;;;;;;;;;5017508;23;20042;-70
2023/08/16 03:07:34;;;;;;;4.47;2.75;;;;;;;;;;4993124;28;20025;-70
2023/08/16 03:10:19;;;;;;;5.13;3.10;;;;;;;;;;5024515;28;20360;-70
2023/08/16 03:13:04;;;;;;;5.82;3.55;;;;;;;;;;5053394;28;20033;-70
2023/08/16 03:15:49;;;;;;;6.07;3.00;;;;;;;;;;5020874;28;20399;-70
2023/08/16 03:18:35;;;;;;;5.85;3.10;;;;;;;;;;5028807;28;20048;-69
2023/08/16 03:21:21;;;;;;;4.75;2.90;;;;;;;;;;5040434;28;20025;-76
2023/08/16 03:24:08;;;;;;;7.07;3.08;;;;;;;;;;5035441;28;20144;-74
2023/08/16 03:26:53;;;;;;;3.60;2.88;;;;;;;;;;5021364;28;20123;-76
2023/08/16 03:29:38;;;;;;;5.72;2.28;;;;;;;;;;5039610;28;20039;-75
2023/08/16 03:32:23;;;;;;;5.00;3.38;;;;;;;;;;5032781;28;20122;-75
2023/08/16 03:35:09;;;;;;;4.40;3.08;;;;;;;;;;5046466;28;20114;-75
2023/08/16 03:37:54;;;;;;;4.88;2.90;;;;;;;;;;5034688;28;20025;-67
2023/08/16 03:40:39;;;;;;;5.50;2.85;;;;;;;;;;5033916;28;20025;-69
2023/08/16 03:43:24;;;;;;;4.57;3.38;;;;;;;;;;5048573;28;20033;-67
2023/08/16 03:46:10;;;;;;;4.18;3.03;;;;;;;;;;5050275;28;20103;-67
2023/08/16 03:48:55;;;;;;;6.65;3.03;;;;;;;;;;5045355;28;20275;-67
2023/08/16 03:51:40;;;;;;;3.90;2.78;;;;;;;;;;5032032;28;20040;-67
2023/08/16 03:54:25;;;;;;;4.43;3.03;;;;;;;;;;5049225;28;20033;-69
2023/08/16 03:57:11;;;;;;;12.55;3.50;;;;;;;;;;5037818;28;20428;-68
2023/08/16 03:59:56;;;;;;;4.10;2.95;;;;;;;;;;5045868;28;20020;-65
2023/08/16 04:02:41;;;;;;;5.53;3.42;;;;;;;;;;5033791;28;20467;-65
2023/08/16 04:05:26;;;;;;;6.68;3.25;;;;;;;;;;5047512;28;20534;-67
2023/08/16 04:08:12;;;;;;;4.72;3.40;;;;;;;;;;5048652;28;20119;-67
2023/08/16 04:10:57;;;;;;;3.42;2.63;;;;;;;;;;5043105;28;20082;-63
2023/08/16 04:13:42;;;;;;;7.30;3.55;;;;;;;;;;5037669;28;20102;-66
2023/08/16 04:16:28;;;;;;;6.07;3.15;;;;;;;;;;5047928;28;20033;-74
2023/08/16 04:19:13;;;;;;;5.90;3.20;;;;;;;;;;5033234;28;20098;-77
2023/08/16 04:21:58;;;;;;;5.30;3.00;;;;;;;;;;5032989;28;20021;-75
2023/08/16 04:24:43;;;;;;;10.27;3.28;;;;;;;;;;5019179;28;20124;-74
2023/08/16 04:27:28;;;;;;;5.57;3.40;;;;;;;;;;5046797;28;20594;-74
2023/08/16 04:30:14;;;;;;;7.47;3.97;;;;;;;;;;5048184;28;20364;-75
2023/08/16 04:32:59;;;;;;;6.13;3.10;;;;;;;;;;5033653;28;20491;-62
2023/08/16 04:35:44;;;;;;;5.38;3.05;;;;;;;;;;5032994;28;20058;-67
2023/08/16 04:38:29;;;;;;;7.20;3.00;;;;;;;;;;5047925;28;20036;-65
2023/08/16 04:41:15;;;;;;;7.68;3.22;;;;;;;;;;5045159;28;20046;-64
2023/08/16 04:44:00;;;;;;;6.47;3.35;;;;;;;;;;5042711;28;20056;-65
2023/08/16 04:46:45;;;;;;;5.32;2.90;;;;;;;;;;5041128;28;20034;-65
2023/08/16 04:49:32;;;;;;;6.35;3.08;;;;;;;;;;5032668;28;20041;-69
2023/08/16 04:52:17;;;;;;;4.63;2.72;;;;;;;;;;5030993;28;20512;-69
2023/08/16 04:55:02;;;;;;;3.90;2.95;;;;;;;;;;5033153;28;20032;-66
2023/08/16 04:57:48;;;;;;;3.63;2.90;;;;;;;;;;5041842;28;20093;-66
2023/08/16 05:00:33;;;;;;;5.45;3.38;;;;;;;;;;5025021;28;20033;-69
2023/08/16 05:03:19;;;;;;;7.93;3.25;;;;;;;;;;5032330;28;20074;-68
2023/08/16 05:06:04;;;;;;;5.72;3.25;;;;;;;;;;5033207;28;20044;-69
2023/08/16 05:08:49;;;;;;;6.75;3.10;;;;;;;;;;5018154;28;20036;-66
2023/08/16 05:11:35;;;;;;;5.22;2.60;;;;;;;;;;5045562;28;20418;-71
2023/08/16 05:14:20;;;;;;;6.38;2.67;;;;;;;;;;5033125;28;20046;-70
2023/08/16 05:17:05;;;;;;;5.32;2.90;;;;;;;;;;5033516;28;20032;-69
2023/08/16 05:19:51;;;;;;;4.78;2.78;;;;;;;;;;5033556;28;20035;-69
2023/08/16 05:22:36;;;;;;;6.45;2.47;;;;;;;;;;5031706;28;20025;-69
2023/08/16 05:25:21;;;;;;;6.68;3.05;;;;;;;;;;5045310;28;20378;-68
2023/08/16 05:28:07;;;;;;;6.28;4.03;;;;;;;;;;5031999;28;20021;-67
2023/08/16 05:30:52;;;;;;;7.53;3.10;;;;;;;;;;5040480;28;20048;-68
2023/08/16 05:33:38;;;;;;;4.40;3.20;;;;;;;;;;5031553;28;20044;-66
2023/08/16 05:36:28;;;;;;;5.03;3.42;;;;;;;;;;5031429;28;20017;-66
2023/08/16 05:39:13;;;;;;;6.32;3.40;;;;;;;;;;5047148;28;20029;-68
2023/08/16 05:41:58;;;;;;;7.63;3.50;;;;;;;;;;5042935;28;20040;-66
2023/08/16 05:44:44;;;;;;;7.57;3.72;;;;;;;;;;5029122;28;20049;-64
2023/08/16 05:47:29;;;;;;;4.72;3.17;;;;;;;;;;5032707;28;20036;-69
2023/08/16 05:50:14;;;;;;;5.13;2.88;;;;;;;;;;5042700;28;20029;-65
2023/08/16 05:52:59;;;;;;;5.32;3.42;;;;;;;;;;5042257;28;20047;-65
2023/08/16 05:55:45;;;;;;;7.90;3.30;;;;;;;;;;5040607;28;20064;-65
2023/08/16 05:58:30;;;;;;;4.80;2.80;;;;;;;;;;5015561;28;20037;-66
2023/08/16 06:01:15;;;;;;;6.05;3.22;;;;;;;;;;5031645;28;20072;-65
2023/08/16 06:04:00;;;;;;;6.00;3.20;;;;;;;;;;5032514;28;20028;-69
2023/08/16 06:06:46;;;;;;;4.30;3.03;;;;;;;;;;5030976;28;20025;-69
2023/08/16 06:09:31;;;;;;;5.28;2.75;;;;;;;;;;5033684;28;20037;-68
2023/08/16 06:12:16;;;;;;;7.25;2.80;;;;;;;;;;5024551;28;20036;-67
2023/08/16 06:15:02;;;;;;;6.50;2.80;;;;;;;;;;5031625;28;20048;-72
2023/08/16 06:17:47;;;;;;;7.38;3.85;;;;;;;;;;5045523;28;20406;-69
2023/08/16 06:20:32;;;;;;;7.30;3.67;;;;;;;;;;5033937;28;20059;-71
2023/08/16 06:23:18;;;;;;;6.68;3.22;;;;;;;;;;5044429;28;20069;-65
2023/08/16 06:26:03;;;;;;;5.97;2.83;;;;;;;;;;5027954;28;20034;-77
2023/08/16 06:28:48;;;;;;;6.15;3.10;;;;;;;;;;5039658;28;20305;-76
2023/08/16 06:31:33;;;;;;;8.20;3.92;;;;;;;;;;5041155;28;20028;-76
2023/08/16 06:34:19;;;;;;;6.78;3.70;;;;;;;;;;5036073;28;20365;-77
2023/08/16 06:37:04;;;;;;;4.93;3.03;;;;;;;;;;5022332;28;20432;-76
2023/08/16 06:39:49;;;;;;;7.15;3.63;;;;;;;;;;5020494;28;20033;-76
2023/08/16 06:42:35;;;;;;;5.40;3.72;;;;;;;;;;5031837;28;20392;-67
2023/08/16 06:45:21;;;;;;;6.43;3.92;;;;;;;;;;5043126;28;20112;-78
2023/08/16 06:48:06;;;;;;;6.50;4.43;;;;;;;;;;5034248;28;20377;-75
2023/08/16 06:50:51;;;;;;;7.00;4.65;;;;;;;;;;5033933;28;20039;-74
2023/08/16 06:53:39;;;;;;;9.05;3.90;;;;;;;;;;5045261;28;20118;-72
2023/08/16 06:56:24;;;;;;;7.20;4.03;;;;;;;;;;5031834;28;20037;-69
2023/08/16 06:59:10;;;;;;;7.72;4.35;;;;;;;;;;5034730;28;20120;-72
2023/08/16 07:01:56;;;;;;;7.63;4.20;;;;;;;;;;5047214;28;20387;-63
2023/08/16 07:04:45;;;;;;;6.40;3.42;;;;;;;;;;5032640;28;20368;-62
2023/08/16 07:07:31;;;;;;;5.63;3.80;;;;;;;;;;5033631;28;20075;-65
2023/08/16 07:10:16;;;;;;;7.93;4.82;;;;;;;;;;5033078;28;20133;-62
2023/08/16 07:13:02;;;;;;;5.13;3.40;;;;;;;;;;5034440;28;20035;-62
2023/08/16 07:15:47;;;;;;;7.35;4.40;;;;;;;;;;5044998;28;20154;-65
2023/08/16 07:18:33;;;;;;;8.68;4.43;;;;;;;;;;5029065;28;20029;-70
2023/08/16 07:21:18;;;;;;;6.60;3.78;;;;;;;;;;5033587;28;20116;-61
2023/08/16 07:24:03;;;;;;;9.48;4.22;;;;;;;;;;5031297;28;20067;-62
2023/08/16 07:26:49;;;;;;;8.35;3.47;;;;;;;;;;5033392;28;21892;-67
2023/08/16 07:29:34;;;;;;;9.00;4.43;;;;;;;;;;5034036;28;20033;-66
2023/08/16 07:32:19;;;;;;;5.95;3.20;;;;;;;;;;5046300;28;20031;-67
2023/08/16 07:35:04;;;;;;;6.00;3.30;;;;;;;;;;5034229;28;20021;-64
2023/08/16 07:37:50;;;;;;;6.35;3.13;;;;;;;;;;5031061;28;20507;-73
2023/08/16 07:40:35;;;;;;;8.52;3.97;;;;;;;;;;5048338;28;20041;-66
2023/08/16 07:43:20;;;;;;;8.40;3.95;;;;;;;;;;5031817;28;20029;-63
2023/08/16 07:46:05;;;;;;;9.35;3.92;;;;;;;;;;5029957;28;20036;-67
2023/08/16 07:48:50;;;;;;;9.35;3.80;;;;;;;;;;5033584;28;20041;-67
2023/08/16 07:51:36;;;;;;;7.22;3.53;;;;;;;;;;5033205;28;20035;-67
2023/08/16 07:54:21;;;;;;;6.85;4.00;;;;;;;;;;5033088;28;20025;-64
2023/08/16 07:57:07;;;;;;;6.35;3.53;;;;;;;;;;5021198;28;20033;-63
2023/08/16 07:59:52;;;;;;;5.95;4.10;;;;;;;;;;5031288;28;20036;-66
2023/08/16 08:02:38;;;;;;;8.05;4.53;;;;;;;;;;5028635;28;20784;-67
2023/08/16 08:05:24;;;;;;;6.90;3.83;;;;;;;;;;5028156;28;20037;-66
2023/08/16 08:08:11;;;;;;;7.10;4.40;;;;;;;;;;5031477;28;20060;-66
2023/08/16 08:10:56;;;;;;;8.52;4.18;;;;;;;;;;5028502;28;20038;-68
2023/08/16 08:13:41;;;;;;;5.43;3.45;;;;;;;;;;5032617;28;20029;-63
2023/08/16 08:16:26;;;;;;;6.28;4.20;;;;;;;;;;5046621;28;20586;-73
2023/08/16 08:19:12;;;;;;;5.75;3.75;;;;;;;;;;5039012;28;20134;-83
2023/08/16 08:21:57;;;;;;;6.40;3.75;;;;;;;;;;5032679;28;20487;-76
2023/08/16 08:24:42;;;;;;;4.72;3.65;;;;;;;;;;5043806;28;20033;-70
2023/08/16 08:27:27;;;;;;;6.05;3.13;;;;;;;;;;5032435;28;20488;-77
2023/08/16 08:30:14;;;;;;;5.80;3.85;;;;;;;;;;5044741;28;20032;-71
2023/08/16 08:33:00;;;;;;;4.90;3.33;;;;;;;;;;5029782;28;20086;-67
2023/08/16 08:35:46;;;;;;;7.72;4.03;;;;;;;;;;5032187;28;20033;-66
2023/08/16 08:38:32;;;;;;;6.18;3.42;;;;;;;;;;5043040;28;20044;-65
2023/08/16 08:41:21;;;;;;;4.47;3.72;;;;;;;;;;5032522;28;20051;-65
2023/08/16 08:44:07;;;;;;;9.00;4.38;;;;;;;;;;5030406;28;20025;-64
2023/08/16 08:46:52;;;;;;;6.57;3.88;;;;;;;;;;5044622;28;20047;-62
2023/08/16 08:49:37;;;;;;;8.68;4.20;;;;;;;;;;5028760;28;20029;-62
2023/08/16 08:52:23;;;;;;;7.28;3.65;;;;;;;;;;5041890;28;20072;-67
2023/08/16 08:55:08;;;;;;;9.35;4.32;;;;;;;;;;5030862;28;20039;-68
2023/08/16 08:57:55;;;;;;;5.68;4.18;;;;;;;;;;5029903;28;20138;-77
2023/08/16 09:00:41;;;;;;;6.68;3.85;;;;;;;;;;5028653;28;20086;-68
2023/08/16 09:03:28;;;;;;;7.93;3.80;;;;;;;;;;5041926;28;20539;-70
2023/08/16 09:06:13;;;;;;;5.45;4.22;;;;;;;;;;5026778;28;20039;-79
2023/08/16 09:09:00;;;;;;;8.57;3.95;;;;;;;;;;5040346;28;20036;-67
2023/08/16 09:11:45;;;;;;;6.88;3.53;;;;;;;;;;5043433;28;20044;-73
2023/08/16 09:14:31;;;;;;;7.65;4.35;;;;;;;;;;5043962;28;20029;-76
2023/08/16 09:17:17;;;;;;;8.07;4.53;;;;;;;;;;5032255;28;20383;-72
2023/08/16 09:20:05;;;;;;;6.95;4.13;;;;;;;;;;5033226;28;20410;-72
2023/08/16 09:22:50;;;;;;;5.28;3.60;;;;;;;;;;5030664;28;20036;-70
2023/08/16 09:25:36;;;;;;;6.85;4.57;;;;;;;;;;5030751;28;20395;-74
2023/08/16 09:28:21;;;;;;;8.07;4.80;;;;;;;;;;5045107;28;20029;-64
2023/08/16 09:31:07;;;;;;;6.50;3.92;;;;;;;;;;5048540;28;20021;-65
2023/08/16 09:33:54;;;;;;;6.25;4.07;;;;;;;;;;5030464;28;20040;-66
2023/08/16 09:36:45;;;;;;;5.93;4.32;;;;;;;;;;5029332;28;20025;-73
2023/08/16 09:39:30;;;;;;;6.40;4.55;;;;;;;;;;5040560;28;20040;-70
2023/08/16 09:42:16;;;;;;;7.78;4.60;;;;;;;;;;5032266;28;20058;-66
2023/08/16 09:45:01;;;;;;;6.05;4.22;;;;;;;;;;5043238;28;20078;-65
2023/08/16 09:47:46;;;;;;;9.80;4.63;;;;;;;;;;5031893;28;20064;-62
2023/08/16 09:50:32;;;;;;;7.78;4.35;;;;;;;;;;5026562;28;20067;-66
2023/08/16 09:53:17;;;;;;;8.57;4.28;;;;;;;;;;5040843;28;20032;-63
2023/08/16 09:56:03;;;;;;;8.20;4.05;;;;;;;;;;5030268;28;20340;-66
2023/08/16 09:58:49;;;;;;;10.55;4.47;;;;;;;;;;5042366;28;20430;-65
2023/08/16 10:01:35;;;;;;;8.88;4.50;;;;;;;;;;5031595;28;20491;-61
2023/08/16 10:04:20;;;;;;;6.70;5.00;;;;;;;;;;5025317;28;20537;-64
2023/08/16 10:07:06;;;;;;;11.82;4.93;;;;;;;;;;5031860;28;20040;-73
2023/08/16 10:09:53;;;;;;;7.25;5.25;;;;;;;;;;5031466;28;20245;-77
2023/08/16 10:12:38;;;;;;;8.60;5.05;;;;;;;;;;5031072;28;20045;-79
2023/08/16 10:15:24;;;;;;;8.77;4.93;;;;;;;;;;5039560;28;20101;-77
2023/08/16 10:18:11;;;;;;;7.43;4.65;;;;;;;;;;5028940;28;20033;-74
2023/08/16 10:20:59;;;;;;;10.88;5.20;;;;;;;;;;5041321;28;20363;-67
2023/08/16 10:23:47;;;;;;;8.35;4.95;;;;;;;;;;5029382;28;20099;-67
2023/08/16 10:26:32;;;;;;;8.43;5.00;;;;;;;;;;5030371;28;20137;-76
2023/08/16 10:29:22;;;;;;;9.13;5.18;;;;;;;;;;5029994;28;20033;-73
2023/08/16 10:32:12;;;;;;;7.10;4.63;;;;;;;;;;5045297;28;20025;-72
2023/08/16 10:34:59;;;;;;;12.65;5.28;;;;;;;;;;5048882;28;20040;-73
2023/08/16 10:37:46;;;;;;;5.55;3.92;;;;;;;;;;5043177;28;20483;-74
2023/08/16 10:40:31;;;;;;;12.20;4.85;;;;;;;;;;5029881;28;20047;-63
2023/08/16 10:43:17;;;;;;;7.38;4.70;;;;;;;;;;5038316;28;20138;-62
2023/08/16 10:46:02;;;;;;;5.95;4.78;;;;;;;;;;5050533;28;20025;-63
2023/08/16 10:48:54;;;;;;;9.13;4.70;;;;;;;;;;5031453;28;20040;-65
2023/08/16 10:51:43;;;;;;;6.20;4.20;;;;;;;;;;5034917;28;20102;-67
2023/08/16 10:54:31;;;;;;;14.07;4.85;;;;;;;;;;5033335;28;20045;-66
2023/08/16 10:57:22;;;;;;;9.02;4.75;;;;;;;;;;5031381;28;20119;-62
2023/08/16 11:00:09;;;;;;;6.95;5.03;;;;;;;;;;5030763;28;20064;-64
2023/08/16 11:02:54;;;;;;;8.85;5.40;;;;;;;;;;5033120;28;20044;-71
2023/08/16 11:05:41;;;;;;;9.40;5.30;;;;;;;;;;5034507;28;20028;-82
2023/08/16 11:08:33;;;;;;;9.15;5.35;;;;;;;;;;5047659;28;20406;-69
2023/08/16 11:11:18;;;;;;;9.55;5.15;;;;;;;;;;5031814;28;20090;-68
2023/08/16 11:14:03;;;;;;;7.43;5.35;;;;;;;;;;5033864;28;20056;-70
2023/08/16 11:16:53;;;;;;;8.02;5.30;;;;;;;;;;5045137;28;20024;-77
2023/08/16 11:19:38;;;;;;;7.70;4.72;;;;;;;;;;5035511;28;20413;-64
2023/08/16 11:22:24;;;;;;;10.60;5.90;;;;;;;;;;5039463;28;20029;-65
2023/08/16 11:25:10;;;;;;;8.35;5.40;;;;;;;;;;5028787;28;20037;-67
2023/08/16 11:27:59;;;;;;;7.55;3.90;;;;;;;;;;5041730;28;20139;-66
2023/08/16 11:30:54;;;;;;;6.95;4.25;;;;;;;;;;5034844;28;20503;-67
2023/08/16 11:33:40;;;;;;;8.57;5.25;;;;;;;;;;5041722;28;20041;-68
2023/08/16 11:36:26;;;;;;;10.52;5.20;;;;;;;;;;5028237;28;20451;-64
2023/08/16 11:39:11;;;;;;;11.70;5.38;;;;;;;;;;5034427;28;20041;-66
2023/08/16 11:41:56;;;;;;;7.10;5.07;;;;;;;;;;5033911;28;20094;-65
2023/08/16 11:44:41;;;;;;;7.93;5.18;;;;;;;;;;5044113;28;20104;-65
2023/08/16 11:47:27;;;;;;;10.05;5.22;;;;;;;;;;5034577;28;20144;-65
2023/08/16 11:50:12;;;;;;;8.52;5.55;;;;;;;;;;5029988;28;20029;-67
2023/08/16 11:53:02;;;;;;;9.75;5.18;;;;;;;;;;5045270;28;20036;-68
2023/08/16 11:55:58;;;;;;;8.13;5.13;;;;;;;;;;5037850;28;20060;-66
2023/08/16 11:58:44;;;;;;;8.77;5.15;;;;;;;;;;5030238;28;20064;-65
2023/08/16 12:01:30;;;;;;;6.72;4.90;;;;;;;;;;5020676;28;20116;-64
2023/08/16 12:04:16;;;;;;;8.75;5.10;;;;;;;;;;5031577;28;20120;-63
2023/08/16 12:07:08;;;;;;;8.55;5.25;;;;;;;;;;5049043;28;20743;-64
2023/08/16 12:09:54;;;;;;;8.38;5.38;;;;;;;;;;5047249;28;20094;-62
2023/08/16 12:12:40;;;;;;;7.60;4.35;;;;;;;;;;5032699;28;20029;-73
2023/08/16 12:15:26;;;;;;;7.43;4.40;;;;;;;;;;5031518;28;20476;-74
2023/08/16 12:18:11;;;;;;;7.80;4.95;;;;;;;;;;5033667;28;20109;-76
2023/08/16 12:20:56;;;;;;;6.80;4.80;;;;;;;;;;5033582;28;20024;-77
2023/08/16 12:23:42;;;;;;;8.40;5.07;;;;;;;;;;5045792;28;20032;-74
2023/08/16 12:26:27;;;;;;;8.00;4.65;;;;;;;;;;5031465;28;20471;-73
2023/08/16 12:29:12;;;;;;;7.72;4.63;;;;;;;;;;5030211;28;20127;-74
2023/08/16 12:31:57;;;;;;;6.47;4.25;;;;;;;;;;5031114;28;20692;-71
2023/08/16 12:34:43;;;;;;;7.32;4.70;;;;;;;;;;5041370;28;20033;-73
2023/08/16 12:37:28;;;;;;;8.52;4.25;;;;;;;;;;5035282;28;20036;-72
2023/08/16 12:40:13;;;;;;;8.43;4.38;;;;;;;;;;5031550;28;20119;-70
2023/08/16 12:43:00;;;;;;;12.52;4.43;;;;;;;;;;5044809;28;20044;-72
2023/08/16 12:45:45;;;;;;;7.50;4.20;;;;;;;;;;5026953;28;20037;-71
2023/08/16 12:48:31;;;;;;;6.07;4.25;;;;;;;;;;5030248;28;20081;-74
2023/08/16 12:51:16;;;;;;;8.32;4.07;;;;;;;;;;5044965;28;20387;-67
2023/08/16 12:54:02;;;;;;;7.45;4.15;;;;;;;;;;5030428;28;20021;-69
2023/08/16 12:56:47;;;;;;;8.48;4.55;;;;;;;;;;5032595;28;20045;-68
2023/08/16 12:59:32;;;;;;;8.45;4.72;;;;;;;;;;5015690;28;20039;-70
2023/08/16 13:02:17;;;;;;;9.65;4.97;;;;;;;;;;5030181;28;20033;-68
2023/08/16 13:05:04;;;;;;;5.30;4.00;;;;;;;;;;5031712;28;20033;-68
2023/08/16 13:07:49;;;;;;;5.85;4.38;;;;;;;;;;5031497;28;20028;-73
2023/08/16 13:10:34;;;;;;;5.88;4.47;;;;;;;;;;5045474;28;20695;-64
2023/08/16 13:13:19;;;;;;;6.53;4.30;;;;;;;;;;5031818;28;20139;-65
2023/08/16 13:16:04;;;;;;;7.05;4.35;;;;;;;;;;5042057;28;20112;-63
2023/08/16 13:18:50;;;;;;;7.20;4.05;;;;;;;;;;5030715;28;20389;-66
2023/08/16 13:21:35;;;;;;;6.78;3.67;;;;;;;;;;5033806;28;20040;-66
2023/08/16 13:24:20;;;;;;;7.03;4.25;;;;;;;;;;5029747;28;20068;-66
2023/08/16 13:27:05;;;;;;;7.05;3.78;;;;;;;;;;5027246;28;20045;-75
2023/08/16 13:29:51;;;;;;;5.70;3.20;;;;;;;;;;5018887;28;20028;-73
2023/08/16 13:32:36;;;;;;;7.95;4.32;;;;;;;;;;5026630;28;20068;-73
2023/08/16 13:35:21;;;;;;;6.85;4.18;;;;;;;;;;5032454;28;20123;-74
2023/08/16 13:38:06;;;;;;;6.75;3.80;;;;;;;;;;5030564;28;20124;-75
2023/08/16 13:40:51;;;;;;;6.40;3.45;;;;;;;;;;5026562;28;20363;-74
2023/08/16 13:43:37;;;;;;;6.47;3.38;;;;;;;;;;5043554;28;21184;-75
2023/08/16 13:46:22;;;;;;;4.45;3.30;;;;;;;;;;5030532;28;20037;-73
2023/08/16 13:49:07;;;;;;;5.95;3.78;;;;;;;;;;5046786;28;20119;-72
2023/08/16 13:51:52;;;;;;;6.57;3.58;;;;;;;;;;5045604;28;20041;-73
2023/08/16 13:54:38;;;;;;;6.72;3.90;;;;;;;;;;5028278;28;20112;-74
2023/08/16 13:57:23;;;;;;;4.43;3.00;;;;;;;;;;5025919;28;20107;-73
2023/08/16 14:00:09;;;;;;;4.82;3.42;;;;;;;;;;5031446;28;20505;-75
2023/08/16 14:02:54;;;;;;;6.05;3.22;;;;;;;;;;5041481;28;20040;-69
2023/08/16 14:05:39;;;;;;;4.78;3.08;;;;;;;;;;5029633;28;20035;-65
2023/08/16 14:08:25;;;;;;;4.57;3.40;;;;;;;;;;5030713;28;20044;-67
2023/08/16 14:11:10;;;;;;;10.05;3.85;;;;;;;;;;5029244;28;20460;-68
2023/08/16 14:13:56;;;;;;;5.78;3.47;;;;;;;;;;5038198;28;20452;-68
2023/08/16 14:16:42;;;;;;;5.22;3.08;;;;;;;;;;5044649;28;20090;-70
2023/08/16 14:19:27;;;;;;;8.38;3.05;;;;;;;;;;5042792;28;20120;-69
2023/08/16 14:22:12;;;;;;;4.45;2.95;;;;;;;;;;5044838;28;20864;-67
2023/08/16 14:24:58;;;;;;;6.35;3.22;;;;;;;;;;5042993;22;20405;-64
2023/08/16 14:27:43;;;;;;;5.28;3.35;;;;;;;;;;5017621;28;20497;-66
2023/08/16 14:30:28;;;;;;;6.35;3.95;;;;;;;;;;5026282;28;20059;-66
2023/08/16 14:33:14;;;;;;;4.45;2.72;;;;;;;;;;5041923;28;20021;-66
2023/08/16 14:36:00;;;;;;;6.43;3.47;;;;;;;;;;5029793;28;20116;-67
2023/08/16 14:38:45;;;;;;;7.40;3.08;;;;;;;;;;5040784;28;20074;-66
2023/08/16 14:41:30;;;;;;;4.55;2.78;;;;;;;;;;5042803;28;20051;-71
2023/08/16 14:44:16;;;;;;;6.68;2.90;;;;;;;;;;5043820;28;20029;-72
2023/08/16 14:47:01;;;;;;;9.00;3.70;;;;;;;;;;5035253;28;20064;-69
2023/08/16 14:49:46;;;;;;;5.50;3.85;;;;;;;;;;5038835;28;20188;-68
2023/08/16 14:52:32;;;;;;;3.88;2.92;;;;;;;;;;5019497;28;20041;-72
2023/08/16 14:55:17;;;;;;;6.60;3.00;;;;;;;;;;5037774;28;20029;-69
2023/08/16 14:58:03;;;;;;;5.00;3.53;;;;;;;;;;5026877;28;20065;-72
2023/08/16 15:00:48;;;;;;;6.97;3.42;;;;;;;;;;5031272;28;20412;-67
2023/08/16 15:03:34;;;;;;;5.40;3.03;;;;;;;;;;5037379;28;20042;-70
2023/08/16 15:06:21;;;;;;;5.72;3.38;;;;;;;;;;5035341;28;20032;-70
2023/08/16 15:09:06;;;;;;;4.43;3.08;;;;;;;;;;5028596;28;20503;-69
2023/08/16 15:11:51;;;;;;;3.92;2.75;;;;;;;;;;5042438;28;20033;-69
2023/08/16 15:14:36;;;;;;;3.63;2.83;;;;;;;;;;5043475;28;20060;-69
2023/08/16 15:17:21;;;;;;;5.00;2.80;;;;;;;;;;5033460;28;20048;-66
2023/08/16 15:20:09;;;;;;;4.38;2.97;;;;;;;;;;5031632;28;20033;-65
2023/08/16 15:22:54;;;;;;;9.63;3.85;;;;;;;;;;5042495;28;20439;-81
2023/08/16 15:25:39;;;;;;;6.45;3.65;;;;;;;;;;5042872;28;20046;-78
2023/08/16 15:28:24;;;;;;;5.38;2.90;;;;;;;;;;5032800;28;20127;-79
2023/08/16 15:31:09;;;;;;;6.97;3.42;;;;;;;;;;5043842;28;20029;-78
2023/08/16 15:33:55;;;;;;;6.07;3.83;;;;;;;;;;5030234;28;20634;-70
2023/08/16 15:36:41;;;;;;;5.85;3.70;;;;;;;;;;5030966;28;20041;-75
2023/08/16 15:39:26;;;;;;;5.93;4.13;;;;;;;;;;5029687;28;20045;-76
2023/08/16 15:42:12;;;;;;;6.45;3.28;;;;;;;;;;5031608;28;20036;-80
2023/08/16 15:44:57;;;;;;;7.85;4.32;;;;;;;;;;5005582;28;20317;-78
2023/08/16 15:47:42;;;;;;;5.80;3.50;;;;;;;;;;5027300;28;20029;-77
2023/08/16 15:50:30;;;;;;;5.47;4.00;;;;;;;;;;5015484;28;20067;-77
2023/08/16 15:53:15;;;;;;;6.43;3.40;;;;;;;;;;5037911;28;20088;-72
2023/08/16 15:56:00;;;;;;;4.93;3.42;;;;;;;;;;5010351;28;20484;-71
2023/08/16 15:58:46;;;;;;;6.95;3.65;;;;;;;;;;5021544;28;20052;-70
2023/08/16 16:01:32;;;;;;;6.07;3.65;;;;;;;;;;5033106;28;20040;-69
2023/08/16 16:04:17;;;;;;;5.15;3.70;;;;;;;;;;5018859;28;20041;-68
2023/08/16 16:07:03;;;;;;;8.82;4.93;;;;;;;;;;5034215;28;20668;-69
2023/08/16 16:09:48;;;;;;;6.38;3.42;;;;;;;;;;5032199;28;20076;-71
2023/08/16 16:12:33;;;;;;;7.25;3.50;;;;;;;;;;5034855;28;20071;-70
2023/08/16 16:15:18;;;;;;;10.00;4.38;;;;;;;;;;5058784;28;20493;-78
2023/08/16 16:18:04;;;;;;;6.35;3.47;;;;;;;;;;5045412;28;20124;-78
2023/08/16 16:20:49;;;;;;;6.63;3.30;;;;;;;;;;5044583;28;20064;-77
2023/08/16 16:23:34;;;;;;;5.43;3.83;;;;;;;;;;5039186;28;20045;-78
2023/08/16 16:26:19;;;;;;;5.75;3.45;;;;;;;;;;5037893;28;20029;-79
2023/08/16 16:29:05;;;;;;;13.90;3.80;;;;;;;;;;5046157;28;20040;-68
2023/08/16 16:31:51;;;;;;;5.97;3.78;;;;;;;;;;5034081;28;20068;-73
2023/08/16 16:34:36;;;;;;;4.50;2.88;;;;;;;;;;5042401;28;20037;-71
2023/08/16 16:37:22;;;;;;;6.63;4.03;;;;;;;;;;5034287;28;20037;-71